Terminal Aerodrome Forecast
Issued by NWS North Platte, NE

Home | Current Version | Previous Version | Graphics & Text | Print | Product List | Glossary On
Versions: 1 2 3 4 5 6 7 8 9 10 11 12 13
000
FTUS43 KLBF 211007 AAA
TAFVTN
TAF AMD
KVTN 211007Z 2110/2206 21012KT P6SM FEW250
     FM211500 30008KT P6SM SCT250
     FM211800 34009KT P6SM SCT250
     FM212200 01008KT P6SM SCT250
     FM220200 04008KT P6SM SCT250=

USA.gov is the U.S. government's official web portal to all federal, state and local government web resources and services.